createdAt,value
2023-04-27T00:01:55.565Z,8.33
2023-04-27T00:04:24.115Z,7.87
2023-04-27T00:06:52.737Z,9.53
2023-04-27T00:09:21.194Z,8.73
2023-04-27T00:11:49.564Z,8.97
2023-04-27T00:14:17.913Z,10.07
2023-04-27T00:16:46.445Z,9.27
2023-04-27T00:19:16.614Z,8.87
2023-04-27T00:21:45.014Z,7.43
2023-04-27T00:24:13.454Z,7.73
2023-04-27T00:26:41.909Z,7.77
2023-04-27T00:29:10.661Z,7.93
2023-04-27T00:31:40.846Z,8.57
2023-04-27T00:34:09.302Z,8.30
2023-04-27T00:36:39.166Z,10.37
2023-04-27T00:39:07.651Z,9.60
2023-04-27T00:41:38.637Z,9.90
2023-04-27T00:44:07.366Z,9.67
2023-04-27T00:46:36.420Z,8.47
2023-04-27T00:49:05.692Z,9.47
2023-04-27T00:51:34.073Z,9.20
2023-04-27T00:54:04.754Z,9.40
2023-04-27T00:56:33.800Z,9.60
2023-04-27T00:59:02.186Z,9.43
2023-04-27T01:01:31.534Z,9.30
2023-04-27T01:04:00.328Z,9.00
2023-04-27T01:06:29.837Z,9.63
2023-04-27T01:08:58.160Z,9.90
2023-04-27T01:11:28.116Z,9.80
2023-04-27T01:13:57.230Z,8.53
2023-04-27T01:16:26.537Z,9.50
2023-04-27T01:18:54.910Z,9.00
2023-04-27T01:21:26.225Z,9.17
2023-04-27T01:23:56.234Z,9.13
2023-04-27T01:26:24.501Z,7.57
2023-04-27T01:28:52.900Z,8.83
2023-04-27T01:31:21.757Z,8.77
2023-04-27T01:33:50.062Z,8.93
2023-04-27T01:36:18.843Z,8.07
2023-04-27T01:38:47.484Z,8.83
2023-04-27T01:41:17.530Z,10.70
2023-04-27T01:43:46.338Z,10.00
2023-04-27T01:46:15.868Z,10.53
2023-04-27T01:48:45.308Z,9.47
2023-04-27T01:51:15.557Z,8.90
2023-04-27T01:53:46.352Z,9.40
2023-04-27T01:56:14.826Z,9.47
2023-04-27T01:58:44.609Z,9.87
2023-04-27T02:01:12.949Z,10.37
2023-04-27T02:03:41.995Z,10.10
2023-04-27T02:06:10.809Z,9.63
2023-04-27T02:08:41.091Z,8.80
2023-04-27T02:11:10.454Z,10.33
2023-04-27T02:13:39.264Z,10.43
2023-04-27T02:16:09.543Z,10.67
2023-04-27T02:18:38.632Z,9.40
2023-04-27T02:21:10.983Z,10.40
2023-04-27T02:23:39.561Z,9.43
2023-04-27T02:26:08.214Z,8.50
2023-04-27T02:28:39.226Z,10.10
2023-04-27T02:31:09.345Z,10.13
2023-04-27T02:33:37.876Z,9.40
2023-04-27T02:36:06.864Z,10.43
2023-04-27T02:38:36.090Z,10.10
2023-04-27T02:41:04.645Z,9.00
2023-04-27T02:43:35.529Z,10.30
2023-04-27T02:46:07.600Z,10.50
2023-04-27T02:48:37.585Z,10.47
2023-04-27T02:51:07.288Z,10.73
2023-04-27T02:53:36.491Z,10.37
2023-04-27T02:56:05.237Z,10.53
2023-04-27T02:58:33.629Z,10.23
2023-04-27T03:01:02.812Z,10.50
2023-04-27T03:03:31.473Z,10.43
2023-04-27T03:06:01.234Z,10.90
2023-04-27T03:08:29.763Z,10.00
2023-04-27T03:10:59.577Z,10.67
2023-04-27T03:13:28.148Z,10.70
2023-04-27T03:15:56.642Z,9.27
2023-04-27T03:18:25.057Z,10.40
2023-04-27T03:20:53.400Z,11.20
2023-04-27T03:23:23.823Z,10.37
2023-04-27T03:25:53.991Z,10.43
2023-04-27T03:28:22.523Z,8.77
2023-04-27T03:30:50.973Z,9.80
2023-04-27T03:33:19.474Z,9.10
2023-04-27T03:35:56.405Z,9.13
2023-04-27T03:38:26.588Z,8.87
2023-04-27T03:40:55.715Z,9.50
2023-04-27T03:43:25.965Z,10.63
2023-04-27T03:45:54.494Z,9.27
2023-04-27T03:48:23.053Z,7.80
2023-04-27T03:50:53.641Z,8.77
2023-04-27T03:53:22.488Z,9.07
2023-04-27T03:55:53.263Z,8.63
2023-04-27T03:58:21.619Z,9.43
2023-04-27T04:01:11.072Z,9.37
2023-04-27T04:03:40.230Z,9.13
2023-04-27T04:06:10.238Z,8.87
2023-04-27T04:08:38.735Z,9.80
2023-04-27T04:11:08.614Z,8.97
2023-04-27T04:13:38.116Z,9.20
2023-04-27T04:16:09.257Z,8.60
2023-04-27T04:18:38.544Z,9.10
2023-04-27T04:21:07.626Z,10.40
2023-04-27T04:23:36.078Z,9.87
2023-04-27T04:26:04.888Z,10.20
2023-04-27T04:28:37.699Z,9.60
2023-04-27T04:31:06.757Z,10.27
2023-04-27T04:33:35.289Z,8.87
2023-04-27T04:36:05.261Z,9.23
2023-04-27T04:38:34.977Z,9.83
2023-04-27T04:41:03.604Z,11.03
2023-04-27T04:43:34.640Z,11.27
2023-04-27T04:46:07.923Z,10.47
2023-04-27T04:48:36.941Z,11.47
2023-04-27T04:51:06.899Z,11.63
2023-04-27T04:53:36.197Z,12.40
2023-04-27T04:56:11.186Z,10.83
2023-04-27T04:58:40.327Z,11.93
2023-04-27T05:01:10.182Z,11.03
2023-04-27T05:03:38.703Z,11.70
2023-04-27T05:06:07.974Z,11.87
2023-04-27T05:08:37.818Z,11.73
2023-04-27T05:11:06.635Z,11.03
2023-04-27T05:13:35.754Z,12.70
2023-04-27T05:16:06.250Z,12.73
2023-04-27T05:18:37.290Z,12.63
2023-04-27T05:21:06.929Z,12.20
2023-04-27T05:23:35.732Z,12.33
2023-04-27T05:26:12.877Z,12.10
2023-04-27T05:28:41.415Z,12.87
2023-04-27T05:31:09.968Z,11.93
2023-04-27T05:33:39.871Z,11.57
2023-04-27T05:36:09.365Z,12.40
2023-04-27T05:38:40.619Z,14.50
2023-04-27T05:41:09.288Z,12.90
2023-04-27T05:43:38.764Z,12.60
2023-04-27T05:46:07.450Z,12.20
2023-04-27T05:48:36.419Z,13.70
2023-04-27T05:51:07.158Z,13.20
2023-04-27T05:53:36.259Z,12.60
2023-04-27T05:56:06.922Z,12.43
2023-04-27T05:58:35.477Z,13.57
2023-04-27T06:01:04.300Z,13.40
2023-04-27T06:03:33.537Z,12.40
2023-04-27T06:06:06.158Z,11.63
2023-04-27T06:08:37.531Z,11.77
2023-04-27T06:11:06.721Z,11.97
2023-04-27T06:13:35.187Z,11.93
2023-04-27T06:16:03.793Z,11.97
2023-04-27T06:18:32.651Z,10.47
2023-04-27T06:21:02.485Z,10.87
2023-04-27T06:23:32.495Z,10.40
2023-04-27T06:26:03.035Z,10.60
2023-04-27T06:28:31.576Z,10.60
2023-04-27T06:31:00.464Z,11.20
2023-04-27T06:33:29.078Z,11.03
2023-04-27T06:35:57.532Z,10.80
2023-04-27T06:38:33.814Z,10.20
2023-04-27T06:41:04.451Z,10.27
2023-04-27T06:43:33.013Z,10.67
2023-04-27T06:46:01.529Z,11.63
2023-04-27T06:48:30.155Z,10.70
2023-04-27T06:50:58.674Z,11.63
2023-04-27T06:53:27.322Z,10.80
2023-04-27T06:55:55.873Z,10.73
2023-04-27T06:58:25.873Z,10.27
2023-04-27T07:00:55.278Z,11.23
2023-04-27T07:03:23.968Z,9.37
2023-04-27T07:05:53.115Z,10.67
2023-04-27T07:08:21.675Z,9.87
2023-04-27T07:10:50.170Z,9.27
2023-04-27T07:13:18.665Z,10.77
2023-04-27T07:15:48.999Z,10.60
2023-04-27T07:18:17.889Z,9.20
2023-04-27T07:20:46.382Z,10.53
2023-04-27T07:23:14.871Z,9.13
2023-04-27T07:25:43.612Z,9.60
2023-04-27T07:28:12.214Z,9.13
2023-04-27T07:30:41.743Z,8.20
2023-04-27T07:33:12.109Z,9.73
2023-04-27T07:35:40.758Z,9.27
2023-04-27T07:38:09.289Z,9.63
2023-04-27T07:40:37.820Z,8.33
2023-04-27T07:43:06.364Z,9.13
2023-04-27T07:45:34.964Z,7.83
2023-04-27T07:48:04.588Z,7.93
2023-04-27T07:50:34.776Z,8.07
2023-04-27T07:53:04.162Z,7.30
2023-04-27T07:55:32.709Z,8.63
2023-04-27T07:58:01.323Z,7.50
2023-04-27T08:00:29.995Z,7.87
2023-04-27T08:02:58.739Z,7.17
2023-04-27T08:05:28.096Z,7.37
2023-04-27T08:07:58.625Z,7.27
2023-04-27T08:10:27.659Z,7.77
2023-04-27T08:12:56.203Z,7.43
2023-04-27T08:15:24.887Z,7.40
2023-04-27T08:17:53.395Z,6.27
2023-04-27T08:20:22.089Z,5.93
2023-04-27T08:22:52.682Z,6.00
2023-04-27T08:25:22.876Z,6.67
2023-04-27T08:27:51.477Z,6.13
2023-04-27T08:30:20.382Z,6.20
2023-04-27T08:32:49.145Z,6.30
2023-04-27T08:35:18.831Z,5.37
2023-04-27T08:37:47.715Z,5.57
2023-04-27T08:40:16.407Z,5.63
2023-04-27T08:42:56.779Z,6.17
2023-04-27T08:45:26.515Z,6.80
2023-04-27T08:47:55.831Z,6.30
2023-04-27T08:50:24.908Z,4.37
2023-04-27T08:52:54.736Z,5.73
2023-04-27T08:55:24.450Z,5.50
2023-04-27T08:57:58.665Z,4.33
2023-04-27T09:00:28.304Z,4.10
2023-04-27T09:02:57.122Z,4.93
2023-04-27T09:05:25.831Z,4.70
2023-04-27T09:07:58.884Z,4.03
2023-04-27T09:10:29.635Z,4.90
2023-04-27T09:13:01.267Z,5.00
2023-04-27T09:15:30.096Z,4.57
2023-04-27T09:17:59.343Z,4.43
2023-04-27T09:20:28.839Z,5.17
2023-04-27T09:22:58.859Z,4.57
2023-04-27T09:25:29.653Z,4.23
2023-04-27T09:28:01.457Z,3.40
2023-04-27T09:30:31.146Z,4.00
2023-04-27T09:33:01.925Z,4.57
2023-04-27T09:35:32.736Z,3.63
2023-04-27T09:38:02.383Z,3.97
2023-04-27T09:40:32.115Z,3.97
2023-04-27T09:43:02.950Z,4.40
2023-04-27T09:45:31.559Z,4.17
2023-04-27T09:48:01.448Z,4.23
2023-04-27T09:50:30.269Z,3.60
2023-04-27T09:52:59.213Z,3.83
2023-04-27T09:55:34.099Z,4.00
2023-04-27T09:58:21.040Z,4.03
2023-04-27T10:01:01.401Z,3.37
2023-04-27T10:03:40.445Z,3.40
2023-04-27T10:06:49.382Z,4.20
2023-04-27T10:09:23.699Z,4.10
2023-04-27T10:11:54.199Z,3.97
2023-04-27T10:14:25.846Z,3.77
2023-04-27T10:16:56.866Z,3.93
2023-04-27T10:19:27.085Z,4.17
2023-04-27T10:21:59.219Z,4.83
2023-04-27T10:24:37.221Z,4.23
2023-04-27T10:27:07.325Z,4.47
2023-04-27T10:29:42.180Z,3.97
2023-04-27T10:32:13.281Z,4.57
2023-04-27T10:34:42.858Z,4.83
2023-04-27T10:37:14.387Z,4.50
2023-04-27T10:39:49.119Z,4.23
2023-04-27T10:42:29.580Z,5.23
2023-04-27T10:44:59.948Z,4.60
2023-04-27T10:47:39.298Z,5.00
2023-04-27T10:50:11.590Z,4.50
2023-04-27T10:52:42.413Z,4.93
2023-04-27T10:55:18.218Z,5.30
2023-04-27T10:57:51.715Z,4.80
2023-04-27T11:00:29.610Z,4.20
2023-04-27T11:02:59.517Z,4.77
2023-04-27T11:05:32.939Z,5.67
2023-04-27T11:08:09.169Z,4.80
2023-04-27T11:10:41.265Z,4.47
2023-04-27T11:13:12.571Z,4.70
2023-04-27T11:15:50.722Z,5.17
2023-04-27T11:18:21.295Z,4.33
2023-04-27T11:20:50.838Z,4.50
2023-04-27T11:23:27.160Z,4.80
2023-04-27T11:25:58.605Z,4.83
2023-04-27T11:28:27.579Z,4.87
2023-04-27T11:31:01.236Z,4.90
2023-04-27T11:33:30.158Z,4.77
2023-04-27T11:35:58.934Z,4.40
2023-04-27T11:38:28.496Z,4.37
2023-04-27T11:41:06.094Z,5.00
2023-04-27T11:43:35.286Z,4.90
2023-04-27T11:46:10.792Z,5.07
2023-04-27T11:48:40.973Z,5.03
2023-04-27T11:51:12.340Z,4.70
2023-04-27T11:53:42.995Z,4.23
2023-04-27T11:56:12.230Z,5.50
2023-04-27T11:58:42.119Z,4.80
2023-04-27T12:01:13.309Z,5.23
2023-04-27T12:03:42.526Z,5.43
2023-04-27T12:06:31.741Z,4.13
2023-04-27T12:09:01.391Z,4.10
2023-04-27T12:11:30.000Z,4.70
2023-04-27T12:13:58.976Z,5.17
2023-04-27T12:16:29.479Z,5.13
2023-04-27T12:18:58.250Z,4.77
2023-04-27T12:21:27.048Z,4.47
2023-04-27T12:23:55.701Z,4.37
2023-04-27T12:26:24.659Z,3.93
2023-04-27T12:28:53.557Z,4.80
2023-04-27T12:31:27.467Z,4.87
2023-04-27T12:33:57.773Z,4.87
2023-04-27T12:36:27.865Z,5.33
2023-04-27T12:39:00.497Z,4.20
2023-04-27T12:41:30.035Z,4.90
2023-04-27T12:43:58.628Z,5.03
2023-04-27T12:46:27.431Z,5.20
2023-04-27T12:48:57.716Z,5.23
2023-04-27T12:51:26.299Z,5.00
2023-04-27T12:53:55.036Z,4.60
2023-04-27T12:56:24.251Z,4.97
2023-04-27T12:58:52.689Z,4.80
2023-04-27T13:01:25.149Z,4.93
2023-04-27T13:03:55.131Z,5.20
2023-04-27T13:06:26.976Z,5.83
2023-04-27T13:08:56.046Z,5.03
2023-04-27T13:11:25.300Z,5.67
2023-04-27T13:13:55.152Z,4.93
2023-04-27T13:16:26.139Z,5.93
2023-04-27T13:18:56.206Z,5.33
2023-04-27T13:21:26.083Z,5.60
2023-04-27T13:23:55.131Z,5.00
2023-04-27T13:26:24.346Z,5.20
2023-04-27T13:28:52.872Z,4.90
2023-04-27T13:31:21.613Z,4.90
2023-04-27T13:33:50.211Z,5.00
2023-04-27T13:36:18.729Z,4.93
2023-04-27T13:38:48.599Z,4.53
2023-04-27T13:41:17.213Z,3.90
2023-04-27T13:43:45.843Z,3.93
2023-04-27T13:46:15.647Z,4.07
2023-04-27T13:48:44.661Z,3.80
2023-04-27T13:51:13.432Z,3.97
2023-04-27T13:53:41.887Z,4.30
2023-04-27T13:56:11.728Z,4.27
2023-04-27T13:58:41.695Z,4.37
2023-04-27T14:01:10.303Z,4.53
2023-04-27T14:03:41.126Z,4.77
2023-04-27T14:06:11.142Z,5.30
2023-04-27T14:08:39.636Z,4.70
2023-04-27T14:11:08.503Z,6.00
2023-04-27T14:13:38.422Z,5.47
2023-04-27T14:16:07.892Z,5.13
2023-04-27T14:18:36.686Z,5.27
2023-04-27T14:21:05.964Z,6.23
2023-04-27T14:23:35.177Z,5.00
2023-04-27T14:26:04.161Z,4.93
2023-04-27T14:28:32.614Z,4.60
2023-04-27T14:31:02.517Z,5.37
2023-04-27T14:33:31.275Z,5.23
2023-04-27T14:36:00.007Z,5.20
2023-04-27T14:38:28.574Z,9.53
2023-04-27T14:40:56.973Z,5.50
2023-04-27T14:43:25.622Z,30.93
2023-04-27T14:45:59.514Z,4.70
2023-04-27T14:48:38.738Z,4.53
2023-04-27T14:51:07.978Z,7.10
2023-04-27T14:53:36.517Z,7.43
2023-04-27T14:56:05.191Z,5.53
2023-04-27T14:58:33.717Z,5.53
2023-04-27T15:01:03.921Z,6.90
2023-04-27T15:03:33.431Z,6.40
2023-04-27T15:06:05.403Z,11.17
2023-04-27T15:08:34.515Z,6.20
2023-04-27T15:11:04.505Z,5.30
2023-04-27T15:13:33.453Z,9.87
2023-04-27T15:16:02.380Z,7.90
2023-04-27T15:18:33.412Z,5.53
2023-04-27T15:21:03.372Z,6.53
2023-04-27T15:23:31.961Z,9.00
2023-04-27T15:26:01.242Z,5.27
2023-04-27T15:28:29.856Z,5.37
2023-04-27T15:30:58.367Z,5.43
2023-04-27T15:33:27.131Z,5.43
2023-04-27T15:35:55.687Z,5.13
2023-04-27T15:38:25.575Z,5.37
2023-04-27T15:40:54.190Z,5.17
2023-04-27T15:43:22.900Z,5.40
2023-04-27T15:45:51.899Z,5.60
2023-04-27T15:48:20.455Z,5.63
2023-04-27T15:50:51.460Z,5.60
2023-04-27T15:53:20.049Z,5.80
2023-04-27T15:55:49.953Z,5.33
2023-04-27T15:58:18.361Z,5.80
2023-04-27T16:00:46.742Z,5.77
2023-04-27T16:03:15.747Z,5.77
2023-04-27T16:05:44.434Z,5.63
2023-04-27T16:08:13.144Z,5.77
2023-04-27T16:10:41.656Z,5.60
2023-04-27T16:13:11.478Z,6.00
2023-04-27T16:15:39.927Z,5.70
2023-04-27T16:18:08.385Z,6.30
2023-04-27T16:20:36.879Z,5.30
2023-04-27T16:23:06.121Z,5.67
2023-04-27T16:25:34.699Z,6.13
2023-04-27T16:28:03.354Z,6.53
2023-04-27T16:30:33.177Z,6.40
2023-04-27T16:33:01.681Z,5.93
2023-04-27T16:35:30.814Z,5.57
2023-04-27T16:37:59.440Z,5.97
2023-04-27T16:40:28.010Z,5.73
2023-04-27T16:42:56.964Z,5.43
2023-04-27T16:45:25.524Z,5.30
2023-04-27T16:47:56.817Z,6.13
2023-04-27T16:50:25.815Z,6.37
2023-04-27T16:52:54.570Z,6.90
2023-04-27T16:55:23.292Z,5.60
2023-04-27T16:57:52.405Z,6.27
2023-04-27T17:00:21.935Z,6.20
2023-04-27T17:02:51.226Z,6.20
2023-04-27T17:05:21.419Z,6.10
2023-04-27T17:07:50.379Z,5.50
2023-04-27T17:10:19.328Z,5.97
2023-04-27T17:12:48.209Z,5.83
2023-04-27T17:15:18.277Z,5.33
2023-04-27T17:17:47.124Z,6.33
2023-04-27T17:20:15.923Z,5.80
2023-04-27T17:22:46.327Z,6.33
2023-04-27T17:25:15.079Z,6.10
2023-04-27T17:27:43.606Z,6.07
2023-04-27T17:30:12.787Z,5.60
2023-04-27T17:32:42.406Z,6.47
2023-04-27T17:35:11.695Z,6.57
2023-04-27T17:37:40.162Z,6.33
2023-04-27T17:40:11.571Z,6.20
2023-04-27T17:42:40.790Z,7.30
2023-04-27T17:45:10.913Z,6.40
2023-04-27T17:47:39.408Z,6.60
2023-04-27T17:50:09.388Z,7.17
2023-04-27T17:52:38.203Z,7.27
2023-04-27T17:55:07.782Z,7.00
2023-04-27T17:57:37.635Z,6.30
2023-04-27T18:00:07.749Z,6.47
2023-04-27T18:02:38.835Z,5.90
2023-04-27T18:05:08.474Z,7.07
2023-04-27T18:07:37.518Z,5.83
2023-04-27T18:10:07.468Z,6.60
2023-04-27T18:12:37.420Z,6.50
2023-04-27T18:15:09.433Z,6.20
2023-04-27T18:17:40.725Z,6.23
2023-04-27T18:20:10.744Z,6.33
2023-04-27T18:22:40.470Z,6.33
2023-04-27T18:25:10.493Z,6.40
2023-04-27T18:27:40.549Z,6.23
2023-04-27T18:30:09.701Z,6.90
2023-04-27T18:32:39.022Z,6.57
2023-04-27T18:35:08.388Z,6.20
2023-04-27T18:37:36.970Z,6.50
2023-04-27T18:40:06.172Z,6.50
2023-04-27T18:42:34.767Z,7.03
2023-04-27T18:45:05.001Z,6.70
2023-04-27T18:47:33.662Z,5.63
2023-04-27T18:50:02.316Z,6.17
2023-04-27T18:52:30.790Z,6.13
2023-04-27T18:54:59.694Z,6.40
2023-04-27T18:57:29.716Z,6.70
2023-04-27T18:59:58.840Z,6.57
2023-04-27T19:02:28.811Z,6.20
2023-04-27T19:05:11.411Z,6.80
2023-04-27T19:07:41.228Z,6.13
2023-04-27T19:10:11.097Z,6.10
2023-04-27T19:12:39.760Z,5.33
2023-04-27T19:15:09.219Z,6.17
2023-04-27T19:17:40.348Z,6.33
2023-04-27T19:20:10.212Z,6.53
2023-04-27T19:22:38.948Z,6.00
2023-04-27T19:25:08.340Z,5.60
2023-04-27T19:27:36.990Z,6.80
2023-04-27T19:30:06.153Z,6.63
2023-04-27T19:32:35.235Z,6.63
2023-04-27T19:35:06.499Z,6.27
2023-04-27T19:37:34.977Z,7.37
2023-04-27T19:40:04.427Z,6.23
2023-04-27T19:42:33.380Z,6.77
2023-04-27T19:45:04.023Z,7.30
2023-04-27T19:47:33.104Z,6.97
2023-04-27T19:50:01.626Z,6.97
2023-04-27T19:52:31.665Z,6.90
2023-04-27T19:55:00.502Z,7.33
2023-04-27T19:57:29.544Z,6.87
2023-04-27T19:59:58.387Z,7.57
2023-04-27T20:02:27.234Z,7.30
2023-04-27T20:04:56.370Z,7.27
2023-04-27T20:07:25.221Z,7.40
2023-04-27T20:09:55.185Z,8.20
2023-04-27T20:12:43.426Z,7.57
2023-04-27T20:15:12.634Z,7.90
2023-04-27T20:17:41.907Z,7.33
2023-04-27T20:20:11.739Z,8.83
2023-04-27T20:22:42.402Z,7.80
2023-04-27T20:25:14.691Z,8.57
2023-04-27T20:27:43.567Z,8.20
2023-04-27T20:30:13.075Z,7.33
2023-04-27T20:32:41.623Z,7.90
2023-04-27T20:35:11.758Z,7.97
2023-04-27T20:37:42.044Z,8.40
2023-04-27T20:40:14.694Z,8.40
2023-04-27T20:42:45.883Z,8.63
2023-04-27T20:45:15.024Z,8.07
2023-04-27T20:47:43.766Z,8.77
2023-04-27T20:50:12.496Z,9.10
2023-04-27T20:52:41.437Z,8.90
2023-04-27T20:55:11.590Z,8.73
2023-04-27T20:57:40.211Z,8.87
2023-04-27T21:00:11.010Z,9.70
2023-04-27T21:02:39.787Z,7.83
2023-04-27T21:05:08.732Z,8.60
2023-04-27T21:07:37.887Z,7.77
2023-04-27T21:10:09.842Z,8.30
2023-04-27T21:12:40.515Z,8.27
2023-04-27T21:15:10.466Z,8.37
2023-04-27T21:17:39.060Z,8.07
2023-04-27T21:20:09.960Z,8.40
2023-04-27T21:22:38.861Z,7.83
2023-04-27T21:25:08.387Z,9.30
2023-04-27T21:27:36.929Z,8.67
2023-04-27T21:30:09.082Z,8.53
2023-04-27T21:32:37.848Z,9.53
2023-04-27T21:35:08.035Z,8.43
2023-04-27T21:37:37.251Z,8.80
2023-04-27T21:40:07.423Z,8.20
2023-04-27T21:42:36.272Z,8.30
2023-04-27T21:45:07.086Z,7.80
2023-04-27T21:47:35.820Z,8.53
2023-04-27T21:50:04.503Z,8.27
2023-04-27T21:52:33.364Z,8.00
2023-04-27T21:55:02.431Z,7.20
2023-04-27T21:57:32.979Z,8.10
2023-04-27T22:00:08.491Z,8.23
2023-04-27T22:02:48.696Z,7.67
2023-04-27T22:05:21.433Z,8.37
2023-04-27T22:07:50.211Z,7.97
2023-04-27T22:10:18.999Z,7.70
2023-04-27T22:12:48.140Z,7.23
2023-04-27T22:15:17.390Z,7.57
2023-04-27T22:17:47.566Z,8.13
2023-04-27T22:20:17.456Z,7.77
2023-04-27T22:22:46.056Z,7.10
2023-04-27T22:25:14.576Z,7.17
2023-04-27T22:27:45.348Z,7.53
2023-04-27T22:30:16.386Z,7.43
2023-04-27T22:32:45.039Z,6.67
2023-04-27T22:35:25.316Z,7.77
2023-04-27T22:37:55.884Z,7.20
2023-04-27T22:40:24.893Z,7.43
2023-04-27T22:42:54.025Z,7.10
2023-04-27T22:45:22.847Z,7.00
2023-04-27T22:47:51.568Z,7.40
2023-04-27T22:50:21.873Z,7.50
2023-04-27T22:52:53.454Z,7.63
2023-04-27T22:55:22.359Z,7.57
2023-04-27T22:57:51.036Z,8.37
2023-04-27T23:00:19.680Z,7.83
2023-04-27T23:02:48.740Z,8.60
2023-04-27T23:05:17.789Z,8.60
2023-04-27T23:07:48.239Z,9.27
2023-04-27T23:10:19.155Z,7.27
2023-04-27T23:12:47.984Z,8.57
2023-04-27T23:15:16.528Z,9.67
2023-04-27T23:17:45.159Z,9.50
2023-04-27T23:20:27.346Z,9.30
2023-04-27T23:22:58.992Z,10.27
2023-04-27T23:25:27.693Z,10.90
2023-04-27T23:27:56.259Z,10.13
2023-04-27T23:30:25.060Z,9.53
2023-04-27T23:32:53.795Z,9.90
2023-04-27T23:35:22.593Z,9.57
2023-04-27T23:37:51.287Z,10.00
2023-04-27T23:40:21.272Z,9.00
2023-04-27T23:42:52.623Z,9.23
2023-04-27T23:45:21.413Z,9.40
2023-04-27T23:47:50.261Z,9.47
2023-04-27T23:50:19.062Z,9.90
2023-04-27T23:52:47.681Z,8.93
2023-04-27T23:55:16.152Z,8.87
2023-04-27T23:57:46.267Z,9.90
